createdAt,value
2019-05-01T00:01:37.436Z,27.05
2019-05-01T00:04:09.978Z,26.73
2019-05-01T00:06:44.556Z,27.27
2019-05-01T00:09:15.134Z,26.62
2019-05-01T00:11:45.494Z,26.37
2019-05-01T00:14:16.133Z,25.82
2019-05-01T00:16:46.442Z,26.27
2019-05-01T00:19:16.829Z,25.90
2019-05-01T00:21:47.129Z,25.50
2019-05-01T00:24:17.341Z,27.30
2019-05-01T00:26:47.621Z,25.45
2019-05-01T00:29:18.110Z,26.50
2019-05-01T00:31:48.464Z,26.48
2019-05-01T00:34:18.817Z,26.55
2019-05-01T00:36:49.060Z,26.80
2019-05-01T00:39:19.818Z,25.37
2019-05-01T00:41:50.232Z,25.88
2019-05-01T00:44:20.818Z,26.00
2019-05-01T00:46:51.649Z,25.97
2019-05-01T00:49:21.909Z,26.02
2019-05-01T00:51:52.209Z,27.07
2019-05-01T00:54:22.823Z,27.85
2019-05-01T00:56:57.655Z,27.45
2019-05-01T00:59:46.941Z,27.67
2019-05-01T01:02:33.622Z,28.10
2019-05-01T01:05:04.578Z,27.62
2019-05-01T01:07:35.591Z,26.73
2019-05-01T01:10:08.899Z,26.85
2019-05-01T01:12:39.208Z,28.32
2019-05-01T01:15:09.804Z,27.65
2019-05-01T01:17:40.225Z,26.82
2019-05-01T01:20:10.809Z,28.12
2019-05-01T01:22:41.655Z,29.12
2019-05-01T01:25:12.443Z,27.50
2019-05-01T01:27:43.270Z,27.73
2019-05-01T01:30:13.806Z,27.67
2019-05-01T01:32:44.021Z,27.95
2019-05-01T01:35:15.319Z,27.07
2019-05-01T01:37:45.615Z,28.95
2019-05-01T01:40:16.891Z,28.12
2019-05-01T01:42:49.880Z,27.95
2019-05-01T01:45:33.720Z,29.52
2019-05-01T01:48:15.527Z,29.57
2019-05-01T01:50:46.962Z,28.12
2019-05-01T01:53:21.729Z,28.95
2019-05-01T01:55:52.853Z,28.80
2019-05-01T01:58:25.158Z,29.60
2019-05-01T02:01:09.580Z,28.98
2019-05-01T02:03:43.208Z,28.83
2019-05-01T02:06:14.547Z,29.95
2019-05-01T02:08:55.932Z,29.77
2019-05-01T02:11:17.432Z,29.70
2019-05-01T02:13:48.150Z,29.45
2019-05-01T02:16:18.931Z,28.83
2019-05-01T02:18:49.581Z,29.85
2019-05-01T02:21:19.950Z,29.95
2019-05-01T02:23:50.583Z,29.07
2019-05-01T02:26:23.340Z,28.55
2019-05-01T02:29:10.292Z,28.98
2019-05-01T02:31:42.713Z,29.52
2019-05-01T02:34:13.594Z,28.55
2019-05-01T02:36:47.326Z,30.15
2019-05-01T02:39:21.977Z,30.10
2019-05-01T02:41:55.165Z,28.17
2019-05-01T02:44:28.585Z,29.20
2019-05-01T02:47:03.755Z,30.13
2019-05-01T02:49:52.344Z,29.48
2019-05-01T02:52:25.827Z,29.90
2019-05-01T02:55:01.804Z,30.43
2019-05-01T02:57:35.242Z,29.72
2019-05-01T03:00:07.458Z,29.40
2019-05-01T03:02:40.832Z,29.63
2019-05-01T03:05:12.170Z,30.30
2019-05-01T03:07:44.373Z,30.32
2019-05-01T03:10:15.361Z,29.67
2019-05-01T03:12:48.545Z,29.70
2019-05-01T03:15:20.822Z,28.95
2019-05-01T03:17:54.672Z,29.77
2019-05-01T03:20:42.479Z,30.48
2019-05-01T03:23:21.554Z,28.27
2019-05-01T03:25:52.244Z,26.12
2019-05-01T03:28:23.042Z,26.82
2019-05-01T03:30:53.334Z,25.95
2019-05-01T03:33:23.930Z,25.45
2019-05-01T03:35:55.738Z,24.20
2019-05-01T03:38:27.054Z,25.80
2019-05-01T03:40:57.900Z,24.85
2019-05-01T03:43:29.404Z,23.98
2019-05-01T03:46:00.522Z,23.80
2019-05-01T03:48:31.697Z,24.10
2019-05-01T03:51:03.038Z,23.15
2019-05-01T03:53:34.360Z,23.15
2019-05-01T03:56:05.355Z,22.15
2019-05-01T03:58:35.915Z,22.70
2019-05-01T04:01:24.177Z,22.02
2019-05-01T04:03:56.397Z,21.15
2019-05-01T04:06:27.566Z,20.68
2019-05-01T04:08:59.082Z,19.57
2019-05-01T04:11:29.659Z,19.85
2019-05-01T04:14:00.131Z,20.05
2019-05-01T04:16:31.601Z,19.55
2019-05-01T04:19:04.441Z,19.57
2019-05-01T04:21:42.596Z,18.98
2019-05-01T04:24:12.830Z,18.70
2019-05-01T04:26:44.347Z,18.65
2019-05-01T04:29:14.861Z,17.23
2019-05-01T04:31:53.849Z,17.65
2019-05-01T04:34:35.313Z,17.85
2019-05-01T04:37:07.790Z,17.95
2019-05-01T04:39:38.091Z,18.48
2019-05-01T04:42:09.367Z,18.92
2019-05-01T04:44:41.577Z,18.23
2019-05-01T04:47:13.737Z,16.62
2019-05-01T04:49:45.448Z,17.07
2019-05-01T04:52:16.390Z,17.67
2019-05-01T04:54:47.549Z,17.32
2019-05-01T04:57:18.478Z,17.20
2019-05-01T04:59:49.198Z,16.17
2019-05-01T05:02:24.164Z,15.85
2019-05-01T05:04:55.124Z,15.38
2019-05-01T05:07:26.081Z,15.93
2019-05-01T05:09:57.834Z,14.87
2019-05-01T05:12:36.190Z,14.18
2019-05-01T05:15:26.648Z,14.13
2019-05-01T05:17:56.930Z,13.98
2019-05-01T05:20:28.110Z,14.60
2019-05-01T05:22:59.655Z,12.55
2019-05-01T05:25:30.846Z,12.82
2019-05-01T05:28:01.690Z,13.10
2019-05-01T05:30:34.113Z,12.65
2019-05-01T05:33:18.122Z,12.53
2019-05-01T05:35:43.564Z,11.88
2019-05-01T05:38:21.633Z,12.55
2019-05-01T05:40:52.996Z,11.90
2019-05-01T05:43:24.037Z,11.12
2019-05-01T05:45:54.307Z,11.28
2019-05-01T05:48:24.812Z,12.05
2019-05-01T05:50:58.983Z,11.65
2019-05-01T05:53:38.991Z,10.90
2019-05-01T05:56:15.789Z,11.00
2019-05-01T05:58:55.800Z,10.53
2019-05-01T06:01:45.517Z,11.00
2019-05-01T06:04:20.449Z,11.97
2019-05-01T06:06:57.232Z,11.55
2019-05-01T06:09:34.359Z,10.70
2019-05-01T06:12:16.108Z,11.35
2019-05-01T06:14:52.213Z,10.80
2019-05-01T06:17:28.584Z,11.15
2019-05-01T06:20:01.632Z,9.90
2019-05-01T06:22:34.744Z,10.43
2019-05-01T06:25:21.442Z,9.18
2019-05-01T06:27:44.828Z,9.18
2019-05-01T06:30:15.757Z,9.20
2019-05-01T06:32:47.679Z,8.98
2019-05-01T06:35:18.484Z,8.60
2019-05-01T06:38:05.943Z,8.50
2019-05-01T06:40:38.711Z,8.15
2019-05-01T06:43:13.626Z,9.03
2019-05-01T06:45:46.839Z,8.65
2019-05-01T06:48:23.330Z,8.25
2019-05-01T06:50:55.954Z,8.10
2019-05-01T06:53:26.803Z,8.98
2019-05-01T06:55:57.459Z,8.85
2019-05-01T06:58:28.547Z,9.48
2019-05-01T07:00:58.926Z,9.20
2019-05-01T07:03:29.810Z,8.85
2019-05-01T07:06:13.629Z,9.20
2019-05-01T07:08:34.178Z,9.33
2019-05-01T07:11:05.060Z,8.55
2019-05-01T07:13:40.123Z,8.90
2019-05-01T07:16:09.335Z,9.60
2019-05-01T07:18:40.206Z,8.80
2019-05-01T07:21:11.544Z,8.40
2019-05-01T07:23:42.446Z,8.18
2019-05-01T07:26:13.834Z,9.08
2019-05-01T07:28:47.338Z,8.35
2019-05-01T07:31:18.080Z,8.30
2019-05-01T07:33:51.242Z,8.30
2019-05-01T07:36:21.222Z,8.35
2019-05-01T07:38:52.125Z,7.05
2019-05-01T07:41:22.869Z,9.20
2019-05-01T07:44:04.730Z,7.75
2019-05-01T07:46:54.161Z,6.90
2019-05-01T07:49:27.880Z,8.20
2019-05-01T07:51:58.511Z,6.33
2019-05-01T07:54:30.919Z,7.80
2019-05-01T07:57:03.277Z,8.00
2019-05-01T07:59:33.920Z,7.40
2019-05-01T08:02:05.841Z,6.60
2019-05-01T08:04:36.745Z,7.60
2019-05-01T08:07:10.012Z,6.78
2019-05-01T08:09:40.655Z,6.92
2019-05-01T08:12:10.959Z,7.28
2019-05-01T08:14:41.179Z,6.55
2019-05-01T08:17:17.942Z,6.78
2019-05-01T08:19:47.031Z,6.70
2019-05-01T08:22:19.329Z,6.72
2019-05-01T08:24:53.718Z,6.95
2019-05-01T08:27:32.812Z,6.65
2019-05-01T08:30:12.770Z,6.60
2019-05-01T08:32:45.898Z,6.47
2019-05-01T08:35:18.656Z,6.55
2019-05-01T08:37:48.881Z,6.87
2019-05-01T08:40:20.533Z,6.60
2019-05-01T08:42:52.435Z,5.97
2019-05-01T08:45:35.713Z,7.17
2019-05-01T08:48:20.790Z,6.17
2019-05-01T08:53:23.405Z,6.17
2019-05-01T08:55:54.165Z,6.28
2019-05-01T08:58:24.805Z,6.70
2019-05-01T09:00:55.097Z,6.97
2019-05-01T09:03:25.328Z,6.80
2019-05-01T09:05:57.467Z,7.28
2019-05-01T09:08:32.033Z,6.37
2019-05-01T09:11:02.299Z,7.03
2019-05-01T09:13:33.092Z,7.20
2019-05-01T09:16:03.381Z,6.75
2019-05-01T09:18:33.946Z,7.30
2019-05-01T09:21:05.131Z,6.60
2019-05-01T09:23:35.908Z,6.15
2019-05-01T09:26:24.049Z,7.37
2019-05-01T09:29:16.019Z,6.72
2019-05-01T09:31:44.957Z,6.53
2019-05-01T09:34:19.205Z,6.53
2019-05-01T09:36:48.038Z,6.90
2019-05-01T09:39:20.744Z,6.97
2019-05-01T09:41:51.029Z,6.15
2019-05-01T09:44:21.678Z,5.85
2019-05-01T09:46:52.040Z,6.30
2019-05-01T09:49:22.997Z,6.35
2019-05-01T09:51:56.193Z,6.78
2019-05-01T09:54:29.210Z,6.78
2019-05-01T09:57:00.076Z,7.47
2019-05-01T09:59:30.491Z,6.67
2019-05-01T10:02:02.993Z,6.65
2019-05-01T10:04:34.191Z,6.30
2019-05-01T10:07:06.291Z,5.85
2019-05-01T10:09:36.891Z,6.42
2019-05-01T10:12:11.534Z,5.97
2019-05-01T10:14:40.198Z,6.95
2019-05-01T10:17:13.412Z,6.08
2019-05-01T10:19:43.333Z,5.80
2019-05-01T10:22:13.682Z,6.15
2019-05-01T10:24:43.889Z,6.42
2019-05-01T10:27:17.319Z,6.37
2019-05-01T10:29:52.021Z,6.42
2019-05-01T10:32:24.256Z,5.97
2019-05-01T10:35:00.186Z,6.35
2019-05-01T10:37:33.641Z,6.87
2019-05-01T10:40:06.154Z,6.30
2019-05-01T10:42:37.342Z,7.08
2019-05-01T10:45:08.421Z,6.20
2019-05-01T10:47:38.642Z,6.15
2019-05-01T10:50:10.592Z,6.83
2019-05-01T10:52:40.907Z,6.17
2019-05-01T10:55:11.832Z,5.92
2019-05-01T10:57:42.583Z,6.12
2019-05-01T11:00:14.897Z,6.22
2019-05-01T11:02:45.464Z,5.58
2019-05-01T11:05:16.047Z,6.22
2019-05-01T11:07:46.628Z,5.95
2019-05-01T11:10:16.937Z,6.10
2019-05-01T11:12:47.186Z,5.60
2019-05-01T11:15:18.840Z,5.60
2019-05-01T11:17:49.124Z,5.00
2019-05-01T11:20:19.355Z,6.10
2019-05-01T11:22:49.608Z,6.30
2019-05-01T11:25:20.920Z,5.75
2019-05-01T11:27:51.222Z,5.47
2019-05-01T11:30:21.528Z,5.78
2019-05-01T11:33:02.455Z,5.55
2019-05-01T11:35:47.587Z,5.62
2019-05-01T11:38:34.893Z,5.53
2019-05-01T11:41:13.609Z,6.05
2019-05-01T11:43:44.205Z,5.28
2019-05-01T11:46:14.913Z,5.50
2019-05-01T11:48:45.271Z,5.70
2019-05-01T11:51:15.942Z,5.58
2019-05-01T11:53:46.740Z,6.05
2019-05-01T11:56:17.514Z,6.17
2019-05-01T11:58:47.761Z,6.15
2019-05-01T12:01:21.182Z,5.72
2019-05-01T12:03:51.397Z,5.40
2019-05-01T12:06:23.216Z,5.50
2019-05-01T12:08:55.057Z,5.83
2019-05-01T12:11:28.534Z,5.75
2019-05-01T12:13:59.199Z,5.17
2019-05-01T12:16:47.926Z,5.00
2019-05-01T12:19:18.688Z,5.87
2019-05-01T12:21:48.935Z,4.47
2019-05-01T12:24:19.143Z,5.42
2019-05-01T12:26:49.511Z,4.78
2019-05-01T12:29:19.722Z,5.22
2019-05-01T12:31:49.935Z,4.92
2019-05-01T12:34:20.127Z,4.60
2019-05-01T12:36:52.066Z,4.83
2019-05-01T12:39:22.368Z,5.10
2019-05-01T12:41:56.937Z,4.50
2019-05-01T12:44:27.137Z,4.37
2019-05-01T12:47:05.153Z,4.65
2019-05-01T12:49:35.814Z,5.08
2019-05-01T12:52:10.982Z,4.37
2019-05-01T12:54:51.842Z,4.42
2019-05-01T12:57:20.877Z,4.05
2019-05-01T12:59:51.348Z,4.50
2019-05-01T13:02:21.549Z,4.78
2019-05-01T13:04:51.785Z,4.28
2019-05-01T13:07:22.560Z,4.50
2019-05-01T13:09:53.382Z,4.20
2019-05-01T13:12:25.624Z,4.42
2019-05-01T13:14:55.951Z,3.92
2019-05-01T13:17:26.541Z,4.15
2019-05-01T13:19:57.170Z,4.30
2019-05-01T13:22:27.835Z,5.75
2019-05-01T13:24:58.496Z,4.50
2019-05-01T13:27:39.631Z,4.35
2019-05-01T13:30:28.111Z,4.20
2019-05-01T13:32:58.462Z,4.05
2019-05-01T13:35:30.570Z,3.95
2019-05-01T13:38:00.619Z,4.25
2019-05-01T13:40:31.395Z,3.92
2019-05-01T13:43:01.669Z,4.35
2019-05-01T13:45:32.317Z,4.40
2019-05-01T13:48:02.950Z,4.30
2019-05-01T13:50:35.051Z,4.20
2019-05-01T13:53:06.242Z,4.60
2019-05-01T13:55:36.548Z,4.60
2019-05-01T13:58:07.181Z,4.05
2019-05-01T14:00:37.729Z,4.72
2019-05-01T14:03:08.315Z,5.17
2019-05-01T14:05:39.045Z,4.58
2019-05-01T14:08:09.706Z,6.50
2019-05-01T14:10:39.965Z,4.08
2019-05-01T14:13:10.231Z,4.25
2019-05-01T14:15:40.445Z,4.30
2019-05-01T14:18:10.680Z,4.95
2019-05-01T14:20:42.529Z,5.50
2019-05-01T14:23:17.446Z,4.67
2019-05-01T14:26:08.515Z,4.50
2019-05-01T14:28:39.146Z,4.80
2019-05-01T14:31:09.787Z,4.17
2019-05-01T14:33:40.540Z,4.60
2019-05-01T14:36:11.123Z,4.72
2019-05-01T14:38:41.417Z,5.58
2019-05-01T14:41:11.655Z,5.70
2019-05-01T14:43:42.236Z,8.75
2019-05-01T14:46:13.945Z,12.53
2019-05-01T14:48:44.601Z,6.25
2019-05-01T14:51:16.192Z,3.98
2019-05-01T14:53:46.595Z,4.10
2019-05-01T14:56:16.891Z,3.08
2019-05-01T14:58:47.194Z,3.75
2019-05-01T15:01:17.419Z,3.67
2019-05-01T15:03:47.642Z,5.97
2019-05-01T15:06:18.228Z,10.58
2019-05-01T15:08:48.593Z,9.40
2019-05-01T15:11:18.814Z,3.65
2019-05-01T15:13:50.682Z,4.30
2019-05-01T15:16:21.020Z,5.05
2019-05-01T15:19:10.729Z,6.22
2019-05-01T15:21:41.361Z,4.47
2019-05-01T15:24:11.635Z,4.40
2019-05-01T15:26:42.258Z,3.77
2019-05-01T15:29:12.957Z,3.60
2019-05-01T15:31:43.729Z,3.92
2019-05-01T15:34:14.431Z,3.83
2019-05-01T15:36:44.738Z,3.42
2019-05-01T15:39:19.136Z,3.10
2019-05-01T15:44:22.798Z,4.62
2019-05-01T15:46:53.437Z,4.30
2019-05-01T15:49:24.310Z,4.62
2019-05-01T15:51:54.610Z,5.20
2019-05-01T15:54:24.897Z,4.30
2019-05-01T15:56:55.198Z,3.90
2019-05-01T15:59:25.512Z,3.55
2019-05-01T16:01:55.718Z,3.25
2019-05-01T16:04:26.285Z,3.37
2019-05-01T16:06:56.916Z,3.95
2019-05-01T16:09:27.837Z,4.10
2019-05-01T16:12:06.994Z,3.33
2019-05-01T16:14:37.616Z,3.00
2019-05-01T16:17:07.933Z,3.75
2019-05-01T16:19:38.318Z,3.60
2019-05-01T16:22:08.708Z,4.75
2019-05-01T16:24:38.982Z,3.50
2019-05-01T16:27:09.148Z,3.70
2019-05-01T16:29:40.097Z,4.25
2019-05-01T16:32:11.524Z,4.22
2019-05-01T16:34:42.232Z,3.72
2019-05-01T16:37:12.513Z,3.65
2019-05-01T16:39:44.389Z,4.03
2019-05-01T16:42:14.947Z,3.98
2019-05-01T16:44:45.234Z,4.20
2019-05-01T16:47:17.065Z,4.20
2019-05-01T16:49:47.826Z,4.17
2019-05-01T16:52:20.034Z,4.85
2019-05-01T16:54:59.069Z,4.45
2019-05-01T16:57:22.724Z,4.45
2019-05-01T16:59:53.405Z,4.40
2019-05-01T17:02:41.099Z,4.95
2019-05-01T17:05:30.332Z,4.65
2019-05-01T17:08:02.253Z,4.60
2019-05-01T17:10:34.742Z,4.78
2019-05-01T17:13:07.624Z,5.35
2019-05-01T17:15:39.579Z,4.72
2019-05-01T17:18:10.439Z,5.47
2019-05-01T17:20:40.761Z,5.12
2019-05-01T17:23:10.964Z,5.30
2019-05-01T17:25:41.331Z,5.10
2019-05-01T17:28:11.753Z,5.45
2019-05-01T17:30:48.060Z,5.45
2019-05-01T17:33:20.684Z,5.17
2019-05-01T17:35:50.860Z,4.90
2019-05-01T17:38:21.293Z,4.42
2019-05-01T17:40:52.494Z,5.37
2019-05-01T17:43:23.417Z,5.47
2019-05-01T17:45:53.750Z,5.65
2019-05-01T17:48:23.986Z,5.87
2019-05-01T17:50:55.152Z,5.83
2019-05-01T17:53:26.118Z,6.50
2019-05-01T17:55:56.378Z,6.08
2019-05-01T17:58:26.583Z,5.75
2019-05-01T18:00:58.442Z,6.47
2019-05-01T18:03:33.076Z,6.72
2019-05-01T18:06:16.735Z,6.70
2019-05-01T18:08:47.003Z,6.83
2019-05-01T18:11:17.648Z,6.60
2019-05-01T18:13:48.418Z,6.28
2019-05-01T18:16:18.808Z,6.72
2019-05-01T18:18:50.432Z,7.10
2019-05-01T18:21:21.441Z,7.08
2019-05-01T18:23:53.734Z,6.87
2019-05-01T18:26:24.444Z,6.55
2019-05-01T18:29:12.699Z,6.42
2019-05-01T18:31:43.024Z,7.40
2019-05-01T18:34:13.326Z,6.62
2019-05-01T18:36:54.986Z,6.75
2019-05-01T18:39:32.470Z,7.40
2019-05-01T18:42:07.687Z,7.60
2019-05-01T18:44:37.978Z,7.50
2019-05-01T18:47:08.664Z,7.28
2019-05-01T18:49:38.948Z,7.47
2019-05-01T18:52:10.212Z,8.13
2019-05-01T18:54:40.508Z,9.63
2019-05-01T18:57:11.122Z,9.38
2019-05-01T18:59:41.778Z,10.08
2019-05-01T19:02:12.272Z,9.70
2019-05-01T19:04:42.477Z,9.78
2019-05-01T19:07:13.067Z,8.50
2019-05-01T19:09:43.983Z,7.92
2019-05-01T19:12:16.271Z,7.97
2019-05-01T19:14:47.214Z,9.45
2019-05-01T19:17:17.508Z,8.33
2019-05-01T19:19:47.727Z,8.63
2019-05-01T19:22:19.680Z,8.93
2019-05-01T19:24:49.998Z,8.43
2019-05-01T19:27:21.250Z,8.88
2019-05-01T19:29:53.064Z,9.50
2019-05-01T19:32:23.713Z,8.78
2019-05-01T19:34:54.429Z,9.58
2019-05-01T19:37:29.268Z,9.78
2019-05-01T19:39:57.185Z,8.95
2019-05-01T19:42:27.418Z,9.53
2019-05-01T19:44:57.929Z,9.45
2019-05-01T19:47:28.286Z,9.33
2019-05-01T19:50:06.613Z,8.85
2019-05-01T19:52:32.320Z,10.45
2019-05-01T19:55:06.332Z,9.88
2019-05-01T19:57:35.415Z,10.15
2019-05-01T20:00:11.027Z,10.08
2019-05-01T20:02:42.400Z,11.40
2019-05-01T20:05:12.959Z,13.10
2019-05-01T20:07:43.244Z,9.30
2019-05-01T20:10:14.650Z,8.88
2019-05-01T20:12:47.646Z,9.05
2019-05-01T20:15:20.075Z,8.23
2019-05-01T20:17:50.921Z,7.55
2019-05-01T20:20:21.225Z,7.30
2019-05-01T20:22:53.320Z,8.00
2019-05-01T20:25:24.624Z,6.67
2019-05-01T20:27:57.343Z,7.00
2019-05-01T20:30:27.419Z,7.80
2019-05-01T20:33:02.127Z,7.45
2019-05-01T20:35:30.346Z,7.58
2019-05-01T20:38:00.960Z,8.28
2019-05-01T20:40:31.872Z,7.83
2019-05-01T20:43:05.900Z,7.72
2019-05-01T20:45:34.865Z,7.90
2019-05-01T20:48:05.238Z,7.12
2019-05-01T20:50:35.819Z,7.85
2019-05-01T20:53:06.565Z,7.42
2019-05-01T20:55:37.058Z,8.35
2019-05-01T20:58:20.849Z,7.37
2019-05-01T21:00:54.795Z,6.70
2019-05-01T21:03:25.321Z,6.85
2019-05-01T21:06:12.746Z,7.42
2019-05-01T21:08:46.065Z,7.05
2019-05-01T21:11:18.319Z,6.62
2019-05-01T21:13:48.894Z,6.65
2019-05-01T21:16:19.560Z,6.58
2019-05-01T21:18:50.227Z,7.25
2019-05-01T21:21:20.508Z,7.12
2019-05-01T21:23:55.303Z,6.30
2019-05-01T21:26:23.448Z,7.10
2019-05-01T21:28:54.135Z,6.70
2019-05-01T21:31:24.788Z,6.75
2019-05-01T21:33:55.441Z,7.95
2019-05-01T21:36:26.453Z,6.87
2019-05-01T21:38:57.103Z,5.80
2019-05-01T21:41:27.419Z,6.22
2019-05-01T21:43:57.976Z,5.78
2019-05-01T21:46:28.601Z,6.47
2019-05-01T21:48:59.307Z,6.78
2019-05-01T21:51:29.961Z,5.90
2019-05-01T21:54:00.655Z,5.92
2019-05-01T21:56:31.019Z,6.25
2019-05-01T21:59:06.642Z,6.42
2019-05-01T22:01:34.728Z,6.00
2019-05-01T22:04:06.680Z,5.80
2019-05-01T22:06:36.949Z,6.37
2019-05-01T22:09:10.499Z,6.20
2019-05-01T22:11:45.171Z,6.70
2019-05-01T22:14:17.110Z,6.72
2019-05-01T22:16:47.684Z,6.70
2019-05-01T22:19:20.267Z,6.22
2019-05-01T22:21:58.876Z,6.33
2019-05-01T22:24:42.723Z,6.47
2019-05-01T22:27:13.180Z,7.45
2019-05-01T22:29:48.884Z,6.83
2019-05-01T22:32:39.283Z,7.58
2019-05-01T22:35:13.659Z,7.33
2019-05-01T22:37:44.949Z,7.15
2019-05-01T22:40:17.252Z,7.60
2019-05-01T22:42:47.536Z,7.58
2019-05-01T22:45:23.131Z,7.28
2019-05-01T22:47:53.448Z,6.90
2019-05-01T22:50:24.738Z,6.75
2019-05-01T22:52:55.392Z,6.05
2019-05-01T22:55:26.761Z,7.00
2019-05-01T22:57:57.214Z,6.12
2019-05-01T23:00:45.388Z,5.90
2019-05-01T23:03:23.339Z,5.95
2019-05-01T23:05:54.016Z,6.05
2019-05-01T23:08:24.642Z,5.90
2019-05-01T23:10:55.289Z,5.75
2019-05-01T23:13:26.019Z,5.87
2019-05-01T23:15:58.045Z,6.00
2019-05-01T23:18:28.379Z,6.05
2019-05-01T23:20:58.586Z,5.65
2019-05-01T23:23:28.984Z,5.80
2019-05-01T23:25:59.214Z,5.92
2019-05-01T23:28:29.427Z,6.40
2019-05-01T23:30:59.655Z,6.80
2019-05-01T23:33:30.592Z,7.47
2019-05-01T23:36:00.940Z,7.50
2019-05-01T23:38:31.140Z,7.42
2019-05-01T23:41:01.368Z,7.22
2019-05-01T23:43:31.705Z,7.15
2019-05-01T23:46:02.016Z,7.22
2019-05-01T23:48:32.234Z,6.72
2019-05-01T23:51:02.475Z,6.97
2019-05-01T23:53:32.681Z,6.65
2019-05-01T23:56:03.267Z,6.78
2019-05-01T23:58:33.542Z,6.87
